createdAt,value
2018-08-30T00:00:42.873Z,20.33
2018-08-30T00:03:11.985Z,18.93
2018-08-30T00:05:41.252Z,20.07
2018-08-30T00:08:10.352Z,19.40
2018-08-30T00:10:39.199Z,18.30
2018-08-30T00:13:08.112Z,18.53
2018-08-30T00:15:36.976Z,18.70
2018-08-30T00:18:05.852Z,17.90
2018-08-30T00:20:34.760Z,19.20
2018-08-30T00:23:03.662Z,19.23
2018-08-30T00:25:32.556Z,18.53
2018-08-30T00:28:01.434Z,18.50
2018-08-30T00:30:30.305Z,18.10
2018-08-30T00:32:59.140Z,22.90
2018-08-30T00:35:28.014Z,19.23
2018-08-30T00:37:56.870Z,18.23
2018-08-30T00:40:25.722Z,19.10
2018-08-30T00:42:54.564Z,20.00
2018-08-30T00:45:23.445Z,18.77
2018-08-30T00:47:52.288Z,18.73
2018-08-30T00:50:21.234Z,19.20
2018-08-30T00:52:50.070Z,19.53
2018-08-30T00:55:18.920Z,23.15
2018-08-30T00:57:47.812Z,19.53
2018-08-30T01:00:16.739Z,18.87
2018-08-30T01:02:45.603Z,22.58
2018-08-30T01:05:14.548Z,19.10
2018-08-30T01:07:43.418Z,19.63
2018-08-30T01:10:12.276Z,19.33
2018-08-30T01:12:53.250Z,19.93
2018-08-30T01:15:23.626Z,19.80
2018-08-30T01:17:52.569Z,20.40
2018-08-30T01:20:21.950Z,20.30
2018-08-30T01:22:50.835Z,20.83
2018-08-30T01:25:19.809Z,24.85
2018-08-30T01:27:48.946Z,20.57
2018-08-30T01:30:18.807Z,20.00
2018-08-30T01:32:47.700Z,21.40
2018-08-30T01:35:16.560Z,25.80
2018-08-30T01:37:45.434Z,21.23
2018-08-30T01:40:14.326Z,22.07
2018-08-30T01:42:43.203Z,20.67
2018-08-30T01:45:12.097Z,20.80
2018-08-30T01:47:40.971Z,25.92
2018-08-30T01:50:09.907Z,21.67
2018-08-30T01:52:38.762Z,20.57
2018-08-30T01:55:07.657Z,21.03
2018-08-30T01:57:36.529Z,25.45
2018-08-30T02:00:05.440Z,21.80
2018-08-30T02:02:34.307Z,21.67
2018-08-30T02:05:03.215Z,21.50
2018-08-30T02:07:32.093Z,20.70
2018-08-30T02:10:01.084Z,25.65
2018-08-30T02:12:29.997Z,22.43
2018-08-30T02:14:58.801Z,21.73
2018-08-30T02:17:27.671Z,21.90
2018-08-30T02:19:56.541Z,23.70
2018-08-30T02:22:25.385Z,22.73
2018-08-30T02:24:54.251Z,22.93
2018-08-30T02:27:23.164Z,23.30
2018-08-30T02:29:52.035Z,23.73
2018-08-30T02:32:20.946Z,22.70
2018-08-30T02:34:49.828Z,24.00
2018-08-30T02:37:18.704Z,24.20
2018-08-30T02:39:47.578Z,23.77
2018-08-30T02:42:16.451Z,23.37
2018-08-30T02:44:45.311Z,24.43
2018-08-30T02:47:14.185Z,23.93
2018-08-30T02:49:43.063Z,23.77
2018-08-30T02:52:11.938Z,25.33
2018-08-30T02:54:40.818Z,25.30
2018-08-30T02:57:09.660Z,30.55
2018-08-30T02:59:38.521Z,25.90
2018-08-30T03:02:07.409Z,24.30
2018-08-30T03:04:36.271Z,24.53
2018-08-30T03:07:05.125Z,29.12
2018-08-30T03:09:34.025Z,25.47
2018-08-30T03:12:02.898Z,24.17
2018-08-30T03:14:31.756Z,24.70
2018-08-30T03:17:00.632Z,24.07
2018-08-30T03:19:29.497Z,23.93
2018-08-30T03:21:58.357Z,23.17
2018-08-30T03:24:27.224Z,23.43
2018-08-30T03:26:56.149Z,23.57
2018-08-30T03:29:25.024Z,24.57
2018-08-30T03:31:53.922Z,24.90
2018-08-30T03:34:22.768Z,23.17
2018-08-30T03:36:51.641Z,23.93
2018-08-30T03:39:20.484Z,22.47
2018-08-30T03:41:49.357Z,23.33
2018-08-30T03:44:18.223Z,23.53
2018-08-30T03:46:47.099Z,23.33
2018-08-30T03:49:15.928Z,23.73
2018-08-30T03:51:44.818Z,22.53
2018-08-30T03:54:13.685Z,29.07
2018-08-30T03:56:42.570Z,23.37
2018-08-30T03:59:11.482Z,21.63
2018-08-30T04:01:40.362Z,21.10
2018-08-30T04:04:09.229Z,26.77
2018-08-30T04:06:38.070Z,22.57
2018-08-30T04:09:08.032Z,22.90
2018-08-30T04:11:36.962Z,21.23
2018-08-30T04:14:05.897Z,21.83
2018-08-30T04:16:34.768Z,20.43
2018-08-30T04:19:07.723Z,21.03
2018-08-30T04:21:37.298Z,20.73
2018-08-30T04:24:07.569Z,23.60
2018-08-30T04:26:36.423Z,19.70
2018-08-30T04:29:05.390Z,19.37
2018-08-30T04:31:34.425Z,18.63
2018-08-30T04:34:03.163Z,19.00
2018-08-30T04:36:32.044Z,19.13
2018-08-30T04:39:00.915Z,17.47
2018-08-30T04:41:29.785Z,18.17
2018-08-30T04:43:58.664Z,18.80
2018-08-30T04:46:27.527Z,18.77
2018-08-30T04:48:56.413Z,17.07
2018-08-30T04:51:25.278Z,17.03
2018-08-30T04:53:54.163Z,17.53
2018-08-30T04:56:23.025Z,17.87
2018-08-30T04:58:51.863Z,17.60
2018-08-30T05:01:20.749Z,15.80
2018-08-30T05:03:49.618Z,16.93
2018-08-30T05:06:18.480Z,15.33
2018-08-30T05:08:47.366Z,15.43
2018-08-30T05:11:16.238Z,15.37
2018-08-30T05:13:45.127Z,14.53
2018-08-30T05:16:14.000Z,13.90
2018-08-30T05:18:42.865Z,13.60
2018-08-30T05:21:11.757Z,13.37
2018-08-30T05:23:40.631Z,13.63
2018-08-30T05:26:09.547Z,12.93
2018-08-30T05:28:38.437Z,12.07
2018-08-30T05:31:07.316Z,14.05
2018-08-30T05:36:14.053Z,11.33
2018-08-30T05:38:42.916Z,10.37
2018-08-30T05:41:11.750Z,9.93
2018-08-30T05:43:40.584Z,9.80
2018-08-30T05:46:09.503Z,8.57
2018-08-30T05:48:38.380Z,10.88
2018-08-30T05:51:07.842Z,8.87
2018-08-30T05:53:36.713Z,9.07
2018-08-30T05:56:05.578Z,8.37
2018-08-30T05:58:34.456Z,8.23
2018-08-30T06:01:03.350Z,8.10
2018-08-30T06:03:32.165Z,9.18
2018-08-30T06:06:01.029Z,7.33
2018-08-30T06:08:29.975Z,7.73
2018-08-30T06:10:58.737Z,8.37
2018-08-30T06:13:27.583Z,6.63
2018-08-30T06:15:56.414Z,6.80
2018-08-30T06:18:25.271Z,7.60
2018-08-30T06:20:54.130Z,6.43
2018-08-30T06:23:22.960Z,6.10
2018-08-30T06:25:51.949Z,6.00
2018-08-30T06:28:20.748Z,5.87
2018-08-30T06:30:49.619Z,5.80
2018-08-30T06:33:18.575Z,5.13
2018-08-30T06:35:47.440Z,5.13
2018-08-30T06:38:16.293Z,5.57
2018-08-30T06:40:45.132Z,4.77
2018-08-30T06:43:13.970Z,5.07
2018-08-30T06:45:42.859Z,4.40
2018-08-30T06:48:11.716Z,3.90
2018-08-30T06:50:40.545Z,5.35
2018-08-30T06:53:09.392Z,4.33
2018-08-30T06:55:38.273Z,5.40
2018-08-30T06:58:07.114Z,4.60
2018-08-30T07:00:36.118Z,4.10
2018-08-30T07:03:05.965Z,4.13
2018-08-30T07:05:34.834Z,4.00
2018-08-30T07:08:03.711Z,3.93
2018-08-30T07:10:32.578Z,3.90
2018-08-30T07:13:01.783Z,3.93
2018-08-30T07:15:30.631Z,3.60
2018-08-30T07:17:59.465Z,3.53
2018-08-30T07:20:28.341Z,3.43
2018-08-30T07:22:57.161Z,3.67
2018-08-30T07:25:26.024Z,3.57
2018-08-30T07:27:54.935Z,3.73
2018-08-30T07:30:23.771Z,3.43
2018-08-30T07:32:52.653Z,3.60
2018-08-30T07:35:21.513Z,3.30
2018-08-30T07:37:50.369Z,3.43
2018-08-30T07:40:19.295Z,3.00
2018-08-30T07:42:48.155Z,3.40
2018-08-30T07:45:16.968Z,3.00
2018-08-30T07:47:45.837Z,2.93
2018-08-30T07:50:14.701Z,2.87
2018-08-30T07:52:43.523Z,3.15
2018-08-30T07:55:12.400Z,2.62
2018-08-30T07:57:41.285Z,3.13
2018-08-30T08:00:10.155Z,3.33
2018-08-30T08:02:39.026Z,3.47
2018-08-30T08:05:07.876Z,2.70
2018-08-30T08:07:36.794Z,3.10
2018-08-30T08:10:05.763Z,3.12
2018-08-30T08:12:34.664Z,2.67
2018-08-30T08:15:03.433Z,2.83
2018-08-30T08:17:32.312Z,3.37
2018-08-30T08:20:01.126Z,3.08
2018-08-30T08:22:29.993Z,2.60
2018-08-30T08:24:58.833Z,3.00
2018-08-30T08:27:27.776Z,2.72
2018-08-30T08:29:56.621Z,2.60
2018-08-30T08:32:25.462Z,2.70
2018-08-30T08:34:54.332Z,2.58
2018-08-30T08:37:23.195Z,3.05
2018-08-30T08:39:52.008Z,2.70
2018-08-30T08:42:20.863Z,2.62
2018-08-30T08:44:49.691Z,2.42
2018-08-30T08:47:18.532Z,2.20
2018-08-30T08:49:47.394Z,2.47
2018-08-30T08:52:16.688Z,2.67
2018-08-30T08:54:45.545Z,2.62
2018-08-30T08:57:14.407Z,2.50
2018-08-30T08:59:43.240Z,2.50
2018-08-30T09:02:12.089Z,2.67
2018-08-30T09:04:40.948Z,2.67
2018-08-30T09:07:10.047Z,2.50
2018-08-30T09:09:38.773Z,2.52
2018-08-30T09:12:07.619Z,2.05
2018-08-30T09:14:36.489Z,2.50
2018-08-30T09:17:05.331Z,2.70
2018-08-30T09:19:34.157Z,2.10
2018-08-30T09:22:03.087Z,2.50
2018-08-30T09:24:31.916Z,2.30
2018-08-30T09:27:00.785Z,2.35
2018-08-30T09:29:29.594Z,2.75
2018-08-30T09:31:58.423Z,2.22
2018-08-30T09:34:27.285Z,2.20
2018-08-30T09:36:56.133Z,2.47
2018-08-30T09:39:24.970Z,2.60
2018-08-30T09:41:53.855Z,2.35
2018-08-30T09:44:22.682Z,2.15
2018-08-30T09:46:51.521Z,2.37
2018-08-30T09:49:20.416Z,2.30
2018-08-30T09:51:49.215Z,2.70
2018-08-30T09:54:18.103Z,2.35
2018-08-30T09:56:47.098Z,2.60
2018-08-30T09:59:15.863Z,2.40
2018-08-30T10:02:01.488Z,2.47
2018-08-30T10:04:31.015Z,2.25
2018-08-30T10:06:59.855Z,2.75
2018-08-30T10:09:28.687Z,2.30
2018-08-30T10:11:57.542Z,2.35
2018-08-30T10:14:27.881Z,2.08
2018-08-30T10:16:56.612Z,2.90
2018-08-30T10:19:25.486Z,2.72
2018-08-30T10:21:54.337Z,2.50
2018-08-30T10:24:23.223Z,2.50
2018-08-30T10:26:52.070Z,2.52
2018-08-30T10:29:20.981Z,2.85
2018-08-30T10:31:49.828Z,2.30
2018-08-30T10:34:18.688Z,2.20
2018-08-30T10:36:47.685Z,2.47
2018-08-30T10:39:16.540Z,2.60
2018-08-30T10:41:45.444Z,2.50
2018-08-30T10:44:14.371Z,2.27
2018-08-30T10:46:43.239Z,2.50
2018-08-30T10:49:12.075Z,2.80
2018-08-30T10:51:40.905Z,2.60
2018-08-30T10:54:09.804Z,2.30
2018-08-30T10:56:38.685Z,2.58
2018-08-30T10:59:07.619Z,2.40
2018-08-30T11:01:36.478Z,2.65
2018-08-30T11:04:05.683Z,2.58
2018-08-30T11:06:34.510Z,2.37
2018-08-30T11:09:03.491Z,2.60
2018-08-30T11:11:32.236Z,2.40
2018-08-30T11:14:01.090Z,2.22
2018-08-30T11:16:29.943Z,2.40
2018-08-30T11:18:58.868Z,2.60
2018-08-30T11:21:27.795Z,2.40
2018-08-30T11:23:56.686Z,2.50
2018-08-30T11:26:25.648Z,2.72
2018-08-30T11:28:54.574Z,2.37
2018-08-30T11:31:23.433Z,2.42
2018-08-30T11:33:52.266Z,2.70
2018-08-30T11:36:21.197Z,2.58
2018-08-30T11:38:50.090Z,2.30
2018-08-30T11:41:18.976Z,2.58
2018-08-30T11:43:48.064Z,2.40
2018-08-30T11:46:17.016Z,2.42
2018-08-30T11:48:45.848Z,2.85
2018-08-30T11:51:16.493Z,2.50
2018-08-30T11:53:45.784Z,2.42
2018-08-30T11:56:14.684Z,2.67
2018-08-30T11:58:43.522Z,2.70
2018-08-30T12:01:12.403Z,2.90
2018-08-30T12:03:41.398Z,2.42
2018-08-30T12:06:11.178Z,2.65
2018-08-30T12:08:39.999Z,2.02
2018-08-30T12:11:09.105Z,2.72
2018-08-30T12:13:37.760Z,2.20
2018-08-30T12:16:06.625Z,2.10
2018-08-30T12:18:35.475Z,2.45
2018-08-30T12:21:04.453Z,2.40
2018-08-30T12:23:33.336Z,2.35
2018-08-30T12:26:02.276Z,2.50
2018-08-30T12:28:31.175Z,2.47
2018-08-30T12:31:01.003Z,2.40
2018-08-30T12:33:29.839Z,2.52
2018-08-30T12:35:58.855Z,2.25
2018-08-30T12:38:27.602Z,2.80
2018-08-30T12:40:56.530Z,2.00
2018-08-30T12:43:25.593Z,2.08
2018-08-30T12:45:54.339Z,2.58
2018-08-30T12:48:23.187Z,2.20
2018-08-30T12:50:52.161Z,2.60
2018-08-30T12:53:21.028Z,2.05
2018-08-30T12:55:49.754Z,2.67
2018-08-30T12:58:18.701Z,2.33
2018-08-30T13:00:47.757Z,1.92
2018-08-30T13:03:16.706Z,2.42
2018-08-30T13:05:45.827Z,2.30
2018-08-30T13:08:14.564Z,1.98
2018-08-30T13:10:43.569Z,1.80
2018-08-30T13:13:12.519Z,2.27
2018-08-30T13:15:41.415Z,2.33
2018-08-30T13:18:10.400Z,2.22
2018-08-30T13:20:39.530Z,2.05
2018-08-30T13:23:08.209Z,2.10
2018-08-30T13:25:37.194Z,2.12
2018-08-30T13:28:05.989Z,2.00
2018-08-30T13:30:35.051Z,2.45
2018-08-30T13:33:03.936Z,2.00
2018-08-30T13:35:32.500Z,1.92
2018-08-30T13:38:01.875Z,1.92
2018-08-30T13:40:30.488Z,1.85
2018-08-30T13:42:59.449Z,2.00
2018-08-30T13:45:28.475Z,1.77
2018-08-30T13:47:57.465Z,2.05
2018-08-30T13:50:26.295Z,2.02
2018-08-30T13:52:55.049Z,2.25
2018-08-30T13:55:24.403Z,2.40
2018-08-30T13:57:53.320Z,1.87
2018-08-30T14:00:24.074Z,2.00
2018-08-30T14:02:52.716Z,1.87
2018-08-30T14:05:21.933Z,2.02
2018-08-30T14:07:50.511Z,2.00
2018-08-30T14:10:19.785Z,2.40
2018-08-30T14:12:49.036Z,2.30
2018-08-30T14:15:18.400Z,2.20
2018-08-30T14:17:46.776Z,2.10
2018-08-30T14:20:18.549Z,2.00
2018-08-30T14:22:54.872Z,2.10
2018-08-30T14:25:26.563Z,1.98
2018-08-30T14:27:55.821Z,1.70
2018-08-30T14:30:27.209Z,2.10
2018-08-30T14:32:56.431Z,1.70
2018-08-30T14:35:25.562Z,2.33
2018-08-30T14:37:57.422Z,1.80
2018-08-30T14:44:13.277Z,1.80
2018-08-30T14:46:51.081Z,2.02
2018-08-30T14:49:22.934Z,2.05
2018-08-30T14:51:52.179Z,1.92
2018-08-30T14:54:21.114Z,1.82
2018-08-30T14:56:50.178Z,1.80
2018-08-30T14:59:52.875Z,1.65
2018-08-30T15:02:21.889Z,1.55
2018-08-30T15:04:50.759Z,1.98
2018-08-30T15:07:19.593Z,1.40
2018-08-30T15:09:48.423Z,1.85
2018-08-30T15:12:17.328Z,1.72
2018-08-30T15:14:46.200Z,2.22
2018-08-30T15:17:15.043Z,1.90
2018-08-30T15:19:43.925Z,1.67
2018-08-30T15:22:12.813Z,1.77
2018-08-30T15:24:41.784Z,1.70
2018-08-30T15:27:10.972Z,2.02
2018-08-30T15:29:40.143Z,1.77
2018-08-30T15:32:08.899Z,1.60
2018-08-30T15:34:37.764Z,1.60
2018-08-30T15:37:06.581Z,1.87
2018-08-30T15:39:35.488Z,2.00
2018-08-30T15:42:04.268Z,1.40
2018-08-30T15:44:33.089Z,1.82
2018-08-30T15:47:01.949Z,1.67
2018-08-30T15:49:30.817Z,1.60
2018-08-30T15:51:59.675Z,1.70
2018-08-30T15:54:28.537Z,1.77
2018-08-30T15:56:57.565Z,1.85
2018-08-30T15:59:26.326Z,1.55
2018-08-30T16:01:55.048Z,1.82
2018-08-30T16:04:23.887Z,1.75
2018-08-30T16:06:52.840Z,1.92
2018-08-30T16:09:21.570Z,1.60
2018-08-30T16:11:50.420Z,2.10
2018-08-30T16:14:19.244Z,1.62
2018-08-30T16:16:48.080Z,2.00
2018-08-30T16:19:16.938Z,1.98
2018-08-30T16:21:45.772Z,2.00
2018-08-30T16:24:14.693Z,1.82
2018-08-30T16:26:43.453Z,1.62
2018-08-30T16:29:12.322Z,1.50
2018-08-30T16:31:41.117Z,1.33
2018-08-30T16:34:09.955Z,1.80
2018-08-30T16:36:38.797Z,1.60
2018-08-30T16:39:09.107Z,1.40
2018-08-30T16:41:37.980Z,1.40
2018-08-30T16:44:06.876Z,1.60
2018-08-30T16:46:35.708Z,1.60
2018-08-30T16:49:04.644Z,1.73
2018-08-30T16:51:33.465Z,1.45
2018-08-30T16:54:02.310Z,1.30
2018-08-30T16:56:31.138Z,1.47
2018-08-30T16:59:00.089Z,1.60
2018-08-30T17:01:28.937Z,1.43
2018-08-30T17:03:57.776Z,1.40
2018-08-30T17:06:26.783Z,1.40
2018-08-30T17:08:55.541Z,1.70
2018-08-30T17:11:24.382Z,1.63
2018-08-30T17:13:53.232Z,1.57
2018-08-30T17:16:22.068Z,1.53
2018-08-30T17:18:52.883Z,1.63
2018-08-30T17:21:21.705Z,1.70
2018-08-30T17:23:50.534Z,1.50
2018-08-30T17:26:19.368Z,1.60
2018-08-30T17:28:48.206Z,1.43
2018-08-30T17:31:17.105Z,1.80
2018-08-30T17:33:45.889Z,1.47
2018-08-30T17:36:14.727Z,1.40
2018-08-30T17:38:43.762Z,1.50
2018-08-30T17:41:12.494Z,1.40
2018-08-30T17:43:41.315Z,1.60
2018-08-30T17:46:10.186Z,1.40
2018-08-30T17:48:39.000Z,1.20
2018-08-30T17:51:07.870Z,1.53
2018-08-30T17:53:36.735Z,1.40
2018-08-30T17:56:05.915Z,1.33
2018-08-30T17:58:34.664Z,1.60
2018-08-30T18:01:03.517Z,1.60
2018-08-30T18:03:32.354Z,1.60
2018-08-30T18:06:01.183Z,1.40
2018-08-30T18:08:30.008Z,1.50
2018-08-30T18:10:58.864Z,1.80
2018-08-30T18:13:27.712Z,1.57
2018-08-30T18:15:56.543Z,1.82
2018-08-30T18:18:25.415Z,1.40
2018-08-30T18:20:54.230Z,1.80
2018-08-30T18:23:23.066Z,1.67
2018-08-30T18:25:51.930Z,1.40
2018-08-30T18:28:20.777Z,1.77
2018-08-30T18:30:49.636Z,1.30
2018-08-30T18:33:18.462Z,1.33
2018-08-30T18:35:47.312Z,1.30
2018-08-30T18:38:16.130Z,1.43
2018-08-30T18:40:44.956Z,1.30
2018-08-30T18:43:13.824Z,1.50
2018-08-30T18:45:42.672Z,1.33
2018-08-30T18:48:11.511Z,1.13
2018-08-30T18:50:40.400Z,1.60
2018-08-30T18:53:09.262Z,1.67
2018-08-30T18:55:38.081Z,1.43
2018-08-30T18:58:06.921Z,1.23
2018-08-30T19:00:35.756Z,1.43
2018-08-30T19:03:04.601Z,1.40
2018-08-30T19:05:33.435Z,2.00
2018-08-30T19:08:02.276Z,1.30
2018-08-30T19:10:31.101Z,1.40
2018-08-30T19:12:59.945Z,1.40
2018-08-30T19:15:46.596Z,1.53
2018-08-30T19:18:33.193Z,1.50
2018-08-30T19:21:02.048Z,1.67
2018-08-30T19:23:30.869Z,1.57
2018-08-30T19:25:59.703Z,1.57
2018-08-30T19:28:28.555Z,1.70
2018-08-30T19:30:57.374Z,1.37
2018-08-30T19:33:26.238Z,1.82
2018-08-30T19:36:13.197Z,1.70
2018-08-30T19:38:42.108Z,1.60
2018-08-30T19:41:21.123Z,1.60
2018-08-30T19:43:51.039Z,1.40
2018-08-30T19:46:20.443Z,1.70
2018-08-30T19:48:49.290Z,1.60
2018-08-30T19:51:18.146Z,1.33
2018-08-30T19:53:46.997Z,1.90
2018-08-30T19:56:16.083Z,1.40
2018-08-30T19:58:44.935Z,1.57
2018-08-30T20:01:13.798Z,1.80
2018-08-30T20:03:42.631Z,1.80
2018-08-30T20:06:11.505Z,1.63
2018-08-30T20:08:40.382Z,1.70
2018-08-30T20:11:09.291Z,1.67
2018-08-30T20:13:38.136Z,1.73
2018-08-30T20:16:06.980Z,1.80
2018-08-30T20:18:35.809Z,1.77
2018-08-30T20:21:04.649Z,1.50
2018-08-30T20:23:33.859Z,1.77
2018-08-30T20:26:03.556Z,1.60
2018-08-30T20:28:32.939Z,2.10
2018-08-30T20:31:01.769Z,1.67
2018-08-30T20:33:30.635Z,1.77
2018-08-30T20:35:59.523Z,2.43
2018-08-30T20:38:28.390Z,1.77
2018-08-30T20:40:57.279Z,1.90
2018-08-30T20:43:26.069Z,2.20
2018-08-30T20:45:54.909Z,1.90
2018-08-30T20:48:23.763Z,1.95
2018-08-30T20:50:52.609Z,2.07
2018-08-30T20:53:21.471Z,2.60
2018-08-30T20:55:50.334Z,1.90
2018-08-30T20:58:19.250Z,1.87
2018-08-30T21:00:48.116Z,1.90
2018-08-30T21:03:16.959Z,1.80
2018-08-30T21:05:45.830Z,1.80
2018-08-30T21:08:14.661Z,2.03
2018-08-30T21:10:43.496Z,1.53
2018-08-30T21:13:12.357Z,1.63
2018-08-30T21:15:41.191Z,2.13
2018-08-30T21:18:10.021Z,1.77
2018-08-30T21:20:38.853Z,1.50
2018-08-30T21:23:07.712Z,1.70
2018-08-30T21:25:36.539Z,1.73
2018-08-30T21:28:05.731Z,2.20
2018-08-30T21:30:34.604Z,1.80
2018-08-30T21:33:03.479Z,1.50
2018-08-30T21:35:32.341Z,1.73
2018-08-30T21:38:01.175Z,1.83
2018-08-30T21:40:30.061Z,2.00
2018-08-30T21:42:58.891Z,1.73
2018-08-30T21:45:27.749Z,1.70
2018-08-30T21:47:56.599Z,1.63
2018-08-30T21:50:25.517Z,1.77
2018-08-30T21:52:54.324Z,2.05
2018-08-30T21:55:23.173Z,2.00
2018-08-30T21:57:52.005Z,1.90
2018-08-30T22:00:20.845Z,1.60
2018-08-30T22:02:49.818Z,1.87
2018-08-30T22:05:18.538Z,2.10
2018-08-30T22:07:47.382Z,1.97
2018-08-30T22:10:16.219Z,1.60
2018-08-30T22:12:45.074Z,1.40
2018-08-30T22:15:13.908Z,1.92
2018-08-30T22:17:42.752Z,1.67
2018-08-30T22:20:11.572Z,1.93
2018-08-30T22:22:40.420Z,1.80
2018-08-30T22:25:09.265Z,1.30
2018-08-30T22:27:38.170Z,1.80
2018-08-30T22:30:08.689Z,1.83
2018-08-30T22:32:37.566Z,1.83
2018-08-30T22:35:06.846Z,1.40
2018-08-30T22:37:36.100Z,1.80
2018-08-30T22:40:05.362Z,1.67
2018-08-30T22:42:34.145Z,1.70
2018-08-30T22:45:03.617Z,1.80
2018-08-30T22:47:32.669Z,1.80
2018-08-30T22:50:01.535Z,1.57
2018-08-30T22:52:30.455Z,1.40
2018-08-30T22:54:59.292Z,1.60
2018-08-30T22:57:28.213Z,1.73
2018-08-30T22:59:57.026Z,1.77
2018-08-30T23:02:25.866Z,1.60
2018-08-30T23:04:55.614Z,1.40
2018-08-30T23:07:24.475Z,2.17
2018-08-30T23:09:53.338Z,1.77
2018-08-30T23:12:22.202Z,1.70
2018-08-30T23:14:51.057Z,1.70
2018-08-30T23:17:19.893Z,1.73
2018-08-30T23:19:48.784Z,1.90
2018-08-30T23:22:17.614Z,1.60
2018-08-30T23:24:46.515Z,1.60
2018-08-30T23:27:15.375Z,1.67
2018-08-30T23:29:44.202Z,1.73
2018-08-30T23:32:13.038Z,1.70
2018-08-30T23:34:41.887Z,1.30
2018-08-30T23:37:10.733Z,1.70
2018-08-30T23:39:39.575Z,1.50
2018-08-30T23:42:08.428Z,1.50
2018-08-30T23:44:37.315Z,1.30
2018-08-30T23:47:06.230Z,1.33
2018-08-30T23:49:35.069Z,1.87
2018-08-30T23:52:03.909Z,1.43
2018-08-30T23:54:32.837Z,1.40
2018-08-30T23:57:01.680Z,1.47
